sensor_id;sensor_type;location;lat;lon;timestamp;pressure;altitude;pressure_sealevel;temperature;humidity
66762;BME280;53672;48.176;16.338;2022-07-18T00:00:19;100079.88;;;17.77;57.24
66762;BME280;53672;48.176;16.338;2022-07-18T00:05:20;100079.56;;;17.65;58.18
66762;BME280;53672;48.176;16.338;2022-07-18T00:10:20;100078.84;;;17.59;58.02
66762;BME280;53672;48.176;16.338;2022-07-18T00:15:22;100072.66;;;17.54;57.93
66762;BME280;53672;48.176;16.338;2022-07-18T00:20:23;100065.81;;;17.43;57.49
66762;BME280;53672;48.176;16.338;2022-07-18T00:25:23;100066.00;;;17.33;57.90
66762;BME280;53672;48.176;16.338;2022-07-18T00:30:25;100070.22;;;17.11;58.15
66762;BME280;53672;48.176;16.338;2022-07-18T00:35:25;100065.03;;;16.96;59.05
66762;BME280;53672;48.176;16.338;2022-07-18T00:40:26;100060.19;;;16.93;59.65
66762;BME280;53672;48.176;16.338;2022-07-18T00:45:28;100065.63;;;16.93;58.88
66762;BME280;53672;48.176;16.338;2022-07-18T00:50:28;100061.28;;;16.92;59.70
66762;BME280;53672;48.176;16.338;2022-07-18T00:55:29;100058.13;;;16.85;59.72
66762;BME280;53672;48.176;16.338;2022-07-18T01:00:31;100059.84;;;16.81;59.15
66762;BME280;53672;48.176;16.338;2022-07-18T01:05:31;100073.31;;;16.72;59.38
66762;BME280;53672;48.176;16.338;2022-07-18T01:10:32;100063.56;;;16.53;60.15
66762;BME280;53672;48.176;16.338;2022-07-18T01:15:34;100057.31;;;16.34;60.43
66762;BME280;53672;48.176;16.338;2022-07-18T01:20:36;100063.00;;;16.18;60.44
66762;BME280;53672;48.176;16.338;2022-07-18T01:25:37;100063.19;;;16.03;61.48
66762;BME280;53672;48.176;16.338;2022-07-18T01:30:37;100069.34;;;15.90;61.17
66762;BME280;53672;48.176;16.338;2022-07-18T01:35:39;100070.22;;;15.86;61.17
66762;BME280;53672;48.176;16.338;2022-07-18T01:40:40;100071.13;;;15.81;61.18
66762;BME280;53672;48.176;16.338;2022-07-18T01:45:41;100066.41;;;15.87;61.00
66762;BME280;53672;48.176;16.338;2022-07-18T01:50:43;100072.75;;;15.82;61.21
66762;BME280;53672;48.176;16.338;2022-07-18T01:55:43;100071.41;;;15.80;61.29
66762;BME280;53672;48.176;16.338;2022-07-18T02:00:44;100066.63;;;15.71;61.88
66762;BME280;53672;48.176;16.338;2022-07-18T02:05:45;100064.19;;;15.70;61.93
66762;BME280;53672;48.176;16.338;2022-07-18T02:10:46;100063.97;;;15.66;61.97
66762;BME280;53672;48.176;16.338;2022-07-18T02:15:46;100061.81;;;15.63;62.66
66762;BME280;53672;48.176;16.338;2022-07-18T02:20:48;100060.19;;;15.62;61.87
66762;BME280;53672;48.176;16.338;2022-07-18T02:25:49;100072.66;;;15.40;62.73
66762;BME280;53672;48.176;16.338;2022-07-18T02:30:49;100068.56;;;15.18;63.15
66762;BME280;53672;48.176;16.338;2022-07-18T02:35:51;100080.03;;;15.10;63.33
66762;BME280;53672;48.176;16.338;2022-07-18T02:40:52;100069.13;;;14.87;64.08
66762;BME280;53672;48.176;16.338;2022-07-18T02:45:53;100076.13;;;14.64;64.85
66762;BME280;53672;48.176;16.338;2022-07-18T02:50:55;100077.66;;;14.41;66.18
66762;BME280;53672;48.176;16.338;2022-07-18T02:55:55;100073.63;;;14.29;66.25
66762;BME280;53672;48.176;16.338;2022-07-18T03:00:56;100078.53;;;14.27;66.49
66762;BME280;53672;48.176;16.338;2022-07-18T03:05:57;100064.22;;;14.16;66.54
66762;BME280;53672;48.176;16.338;2022-07-18T03:10:58;100065.66;;;14.03;67.06
66762;BME280;53672;48.176;16.338;2022-07-18T03:15:58;100067.50;;;14.13;66.32
66762;BME280;53672;48.176;16.338;2022-07-18T03:21:00;100071.72;;;14.29;66.33
66762;BME280;53672;48.176;16.338;2022-07-18T03:26:01;100070.53;;;14.45;65.72
66762;BME280;53672;48.176;16.338;2022-07-18T03:31:01;100080.00;;;14.53;65.50
66762;BME280;53672;48.176;16.338;2022-07-18T03:36:03;100077.81;;;14.55;64.59
66762;BME280;53672;48.176;16.338;2022-07-18T03:41:04;100080.63;;;14.40;65.26
66762;BME280;53672;48.176;16.338;2022-07-18T03:46:05;100083.34;;;14.40;64.92
66762;BME280;53672;48.176;16.338;2022-07-18T03:51:08;100077.69;;;14.36;65.05
66762;BME280;53672;48.176;16.338;2022-07-18T03:56:08;100078.69;;;14.45;64.96
66762;BME280;53672;48.176;16.338;2022-07-18T04:01:09;100082.63;;;14.63;64.49
66762;BME280;53672;48.176;16.338;2022-07-18T04:06:11;100093.94;;;14.75;63.98
66762;BME280;53672;48.176;16.338;2022-07-18T04:11:11;100092.63;;;14.67;63.77
66762;BME280;53672;48.176;16.338;2022-07-18T04:16:12;100084.25;;;14.64;63.87
66762;BME280;53672;48.176;16.338;2022-07-18T04:21:14;100084.75;;;14.66;63.69
66762;BME280;53672;48.176;16.338;2022-07-18T04:26:14;100078.63;;;14.89;63.10
66762;BME280;53672;48.176;16.338;2022-07-18T04:31:15;100071.66;;;15.07;61.86
66762;BME280;53672;48.176;16.338;2022-07-18T04:36:17;100078.56;;;15.23;62.04
66762;BME280;53672;48.176;16.338;2022-07-18T04:41:17;100084.53;;;15.49;61.01
66762;BME280;53672;48.176;16.338;2022-07-18T04:46:18;100087.03;;;15.69;60.51
66762;BME280;53672;48.176;16.338;2022-07-18T04:51:20;100076.47;;;15.86;60.24
66762;BME280;53672;48.176;16.338;2022-07-18T04:56:20;100084.94;;;16.03;59.11
66762;BME280;53672;48.176;16.338;2022-07-18T05:01:21;100075.34;;;16.11;58.36
66762;BME280;53672;48.176;16.338;2022-07-18T05:06:22;100087.59;;;16.27;57.75
66762;BME280;53672;48.176;16.338;2022-07-18T05:11:23;100082.44;;;16.44;58.11
66762;BME280;53672;48.176;16.338;2022-07-18T05:16:23;100077.75;;;16.68;57.14
66762;BME280;53672;48.176;16.338;2022-07-18T05:21:25;100088.00;;;16.90;56.93
66762;BME280;53672;48.176;16.338;2022-07-18T05:26:26;100090.09;;;17.12;56.49
66762;BME280;53672;48.176;16.338;2022-07-18T05:31:26;100082.72;;;17.40;55.13
66762;BME280;53672;48.176;16.338;2022-07-18T05:36:28;100079.56;;;17.65;54.27
66762;BME280;53672;48.176;16.338;2022-07-18T05:41:29;100078.72;;;17.92;54.23
66762;BME280;53672;48.176;16.338;2022-07-18T05:46:30;100081.38;;;18.19;52.71
66762;BME280;53672;48.176;16.338;2022-07-18T05:51:32;100079.09;;;18.48;52.86
66762;BME280;53672;48.176;16.338;2022-07-18T05:56:32;100082.59;;;18.85;50.42
66762;BME280;53672;48.176;16.338;2022-07-18T06:01:33;100079.69;;;19.12;49.46
66762;BME280;53672;48.176;16.338;2022-07-18T06:06:35;100081.81;;;19.46;48.83
66762;BME280;53672;48.176;16.338;2022-07-18T06:11:36;100090.66;;;19.91;45.95
66762;BME280;53672;48.176;16.338;2022-07-18T06:16:36;100084.91;;;20.18;46.58
66762;BME280;53672;48.176;16.338;2022-07-18T06:21:38;100080.94;;;20.50;46.90
66762;BME280;53672;48.176;16.338;2022-07-18T06:26:38;100080.09;;;20.66;46.65
66762;BME280;53672;48.176;16.338;2022-07-18T06:31:39;100080.25;;;20.87;46.81
66762;BME280;53672;48.176;16.338;2022-07-18T06:36:41;100084.25;;;21.15;46.57
66762;BME280;53672;48.176;16.338;2022-07-18T06:41:41;100086.72;;;21.46;44.70
66762;BME280;53672;48.176;16.338;2022-07-18T06:46:42;100088.06;;;21.69;44.37
66762;BME280;53672;48.176;16.338;2022-07-18T06:51:44;100087.03;;;21.91;44.00
66762;BME280;53672;48.176;16.338;2022-07-18T06:56:44;100080.53;;;22.16;42.34
66762;BME280;53672;48.176;16.338;2022-07-18T07:01:45;100073.25;;;22.41;41.20
66762;BME280;53672;48.176;16.338;2022-07-18T07:06:46;100066.53;;;22.71;41.10
66762;BME280;53672;48.176;16.338;2022-07-18T07:11:47;100068.34;;;23.00;38.18
66762;BME280;53672;48.176;16.338;2022-07-18T07:16:47;100064.94;;;23.15;36.98
66762;BME280;53672;48.176;16.338;2022-07-18T07:21:49;100066.09;;;23.27;36.11
66762;BME280;53672;48.176;16.338;2022-07-18T07:26:50;100061.47;;;23.51;36.58
66762;BME280;53672;48.176;16.338;2022-07-18T07:31:50;100059.06;;;23.86;36.11
66762;BME280;53672;48.176;16.338;2022-07-18T07:36:52;100066.13;;;24.23;35.31
66762;BME280;53672;48.176;16.338;2022-07-18T07:41:53;100058.06;;;24.31;33.71
66762;BME280;53672;48.176;16.338;2022-07-18T07:46:53;100062.63;;;24.66;32.93
66762;BME280;53672;48.176;16.338;2022-07-18T07:51:55;100066.16;;;24.79;30.94
66762;BME280;53672;48.176;16.338;2022-07-18T07:56:55;100062.13;;;25.04;30.33
66762;BME280;53672;48.176;16.338;2022-07-18T08:01:56;100056.91;;;25.15;31.35
66762;BME280;53672;48.176;16.338;2022-07-18T08:06:58;100053.91;;;25.67;30.16
66762;BME280;53672;48.176;16.338;2022-07-18T08:11:58;100058.41;;;25.91;29.71
66762;BME280;53672;48.176;16.338;2022-07-18T08:16:59;100053.31;;;25.93;28.99
66762;BME280;53672;48.176;16.338;2022-07-18T08:22:01;100063.94;;;26.26;29.03
66762;BME280;53672;48.176;16.338;2022-07-18T08:27:01;100057.91;;;26.58;28.83
66762;BME280;53672;48.176;16.338;2022-07-18T08:32:02;100065.06;;;26.40;28.35
66762;BME280;53672;48.176;16.338;2022-07-18T08:37:04;100064.38;;;27.04;26.99
66762;BME280;53672;48.176;16.338;2022-07-18T08:42:06;100055.41;;;27.11;27.88
66762;BME280;53672;48.176;16.338;2022-07-18T08:47:07;100057.13;;;27.42;27.35
66762;BME280;53672;48.176;16.338;2022-07-18T08:52:09;100061.44;;;27.62;26.62
66762;BME280;53672;48.176;16.338;2022-07-18T08:57:09;100062.28;;;28.15;25.33
66762;BME280;53672;48.176;16.338;2022-07-18T09:02:10;100059.81;;;28.40;24.86
66762;BME280;53672;48.176;16.338;2022-07-18T09:07:23;100047.22;;;28.46;24.84
66762;BME280;53672;48.176;16.338;2022-07-18T09:12:25;100047.44;;;28.97;24.38
66762;BME280;53672;48.176;16.338;2022-07-18T09:17:27;100040.66;;;29.35;24.20
66762;BME280;53672;48.176;16.338;2022-07-18T09:22:30;100038.28;;;29.37;24.17
66762;BME280;53672;48.176;16.338;2022-07-18T09:27:34;100035.72;;;29.61;24.25
66762;BME280;53672;48.176;16.338;2022-07-18T09:32:35;100032.22;;;30.37;22.70
66762;BME280;53672;48.176;16.338;2022-07-18T09:37:38;100031.59;;;30.79;22.82
66762;BME280;53672;48.176;16.338;2022-07-18T09:42:39;100029.66;;;31.04;20.81
66762;BME280;53672;48.176;16.338;2022-07-18T09:47:50;100029.28;;;31.41;20.62
66762;BME280;53672;48.176;16.338;2022-07-18T09:53:13;100034.88;;;31.30;20.87
66762;BME280;53672;48.176;16.338;2022-07-18T09:58:16;100031.22;;;32.00;19.84
66762;BME280;53672;48.176;16.338;2022-07-18T10:03:19;100029.63;;;32.06;20.30
66762;BME280;53672;48.176;16.338;2022-07-18T10:08:22;100026.75;;;32.35;19.20
66762;BME280;53672;48.176;16.338;2022-07-18T10:13:23;100026.63;;;32.70;18.48
66762;BME280;53672;48.176;16.338;2022-07-18T10:18:25;100021.91;;;32.49;18.48
66762;BME280;53672;48.176;16.338;2022-07-18T10:23:31;100015.28;;;32.91;19.22
66762;BME280;53672;48.176;16.338;2022-07-18T10:28:32;100012.81;;;33.04;18.00
66762;BME280;53672;48.176;16.338;2022-07-18T10:33:38;100020.00;;;34.35;17.57
66762;BME280;53672;48.176;16.338;2022-07-18T10:39:04;100007.22;;;34.91;17.14
66762;BME280;53672;48.176;16.338;2022-07-18T10:44:32;99999.53;;;35.22;15.75
66762;BME280;53672;48.176;16.338;2022-07-18T10:50:07;99990.47;;;35.37;14.72
66762;BME280;53672;48.176;16.338;2022-07-18T10:55:31;99978.16;;;34.51;15.92
66762;BME280;53672;48.176;16.338;2022-07-18T11:00:34;99968.97;;;35.31;16.10
66762;BME280;53672;48.176;16.338;2022-07-18T11:05:41;99968.59;;;35.95;15.35
66762;BME280;53672;48.176;16.338;2022-07-18T11:11:12;99965.94;;;34.95;14.63
66762;BME280;53672;48.176;16.338;2022-07-18T11:16:15;99957.50;;;35.68;14.48
66762;BME280;53672;48.176;16.338;2022-07-18T11:21:17;99951.75;;;35.05;15.02
66762;BME280;53672;48.176;16.338;2022-07-18T11:26:20;99943.28;;;35.09;14.92
66762;BME280;53672;48.176;16.338;2022-07-18T11:31:21;99950.81;;;35.58;15.65
66762;BME280;53672;48.176;16.338;2022-07-18T11:36:23;99947.03;;;34.99;15.26
66762;BME280;53672;48.176;16.338;2022-07-18T11:41:29;99930.88;;;34.83;14.79
66762;BME280;53672;48.176;16.338;2022-07-18T11:46:30;99926.22;;;33.86;15.39
66762;BME280;53672;48.176;16.338;2022-07-18T11:51:34;99925.22;;;34.87;15.80
66762;BME280;53672;48.176;16.338;2022-07-18T11:56:46;99915.72;;;35.50;15.75
66762;BME280;53672;48.176;16.338;2022-07-18T12:01:47;99905.31;;;35.90;14.64
66762;BME280;53672;48.176;16.338;2022-07-18T12:07:13;99896.47;;;34.56;15.52
66762;BME280;53672;48.176;16.338;2022-07-18T12:12:16;99891.50;;;34.13;15.46
66762;BME280;53672;48.176;16.338;2022-07-18T12:17:16;99883.28;;;34.80;16.22
66762;BME280;53672;48.176;16.338;2022-07-18T12:22:17;99891.41;;;35.44;15.16
66762;BME280;53672;48.176;16.338;2022-07-18T12:27:20;99885.25;;;35.29;15.42
66762;BME280;53672;48.176;16.338;2022-07-18T12:32:22;99880.63;;;34.46;15.84
66762;BME280;53672;48.176;16.338;2022-07-18T12:37:24;99870.56;;;34.98;15.95
66762;BME280;53672;48.176;16.338;2022-07-18T12:42:31;99869.59;;;35.32;14.77
66762;BME280;53672;48.176;16.338;2022-07-18T12:47:32;99857.66;;;34.31;15.45
66762;BME280;53672;48.176;16.338;2022-07-18T12:52:33;99854.31;;;32.67;16.69
66762;BME280;53672;48.176;16.338;2022-07-18T12:57:35;99858.56;;;32.20;17.61
66762;BME280;53672;48.176;16.338;2022-07-18T13:02:36;99858.41;;;32.96;17.70
66762;BME280;53672;48.176;16.338;2022-07-18T13:07:36;99841.53;;;33.48;16.03
66762;BME280;53672;48.176;16.338;2022-07-18T13:12:38;99847.56;;;33.80;16.11
66762;BME280;53672;48.176;16.338;2022-07-18T13:17:39;99843.44;;;33.88;15.84
66762;BME280;53672;48.176;16.338;2022-07-18T13:22:39;99837.88;;;34.15;16.43
66762;BME280;53672;48.176;16.338;2022-07-18T13:27:41;99835.03;;;33.21;16.58
66762;BME280;53672;48.176;16.338;2022-07-18T13:32:41;99822.91;;;32.97;16.23
66762;BME280;53672;48.176;16.338;2022-07-18T13:37:42;99825.16;;;33.12;17.23
66762;BME280;53672;48.176;16.338;2022-07-18T13:42:44;99815.16;;;33.15;17.37
66762;BME280;53672;48.176;16.338;2022-07-18T13:47:44;99818.59;;;32.85;17.18
66762;BME280;53672;48.176;16.338;2022-07-18T13:52:45;99812.25;;;32.30;17.63
66762;BME280;53672;48.176;16.338;2022-07-18T13:57:47;99808.53;;;32.47;17.49
66762;BME280;53672;48.176;16.338;2022-07-18T14:02:47;99809.69;;;32.56;17.40
66762;BME280;53672;48.176;16.338;2022-07-18T14:07:48;99805.84;;;32.40;17.21
66762;BME280;53672;48.176;16.338;2022-07-18T14:12:49;99799.53;;;32.29;17.45
66762;BME280;53672;48.176;16.338;2022-07-18T14:17:50;99799.19;;;32.16;17.85
66762;BME280;53672;48.176;16.338;2022-07-18T14:22:51;99791.44;;;31.79;17.19
66762;BME280;53672;48.176;16.338;2022-07-18T14:27:53;99790.81;;;31.40;17.43
66762;BME280;53672;48.176;16.338;2022-07-18T14:32:53;99780.16;;;31.13;17.37
66762;BME280;53672;48.176;16.338;2022-07-18T14:37:54;99777.00;;;31.01;18.11
66762;BME280;53672;48.176;16.338;2022-07-18T14:42:55;99773.03;;;31.05;17.82
66762;BME280;53672;48.176;16.338;2022-07-18T14:47:56;99766.69;;;30.69;17.69
66762;BME280;53672;48.176;16.338;2022-07-18T14:52:56;99765.50;;;30.63;18.04
66762;BME280;53672;48.176;16.338;2022-07-18T14:57:58;99754.38;;;30.67;18.29
66762;BME280;53672;48.176;16.338;2022-07-18T15:02:59;99755.19;;;30.64;18.13
66762;BME280;53672;48.176;16.338;2022-07-18T15:07:59;99760.75;;;30.50;18.94
66762;BME280;53672;48.176;16.338;2022-07-18T15:13:01;99753.56;;;30.38;19.04
66762;BME280;53672;48.176;16.338;2022-07-18T15:18:01;99751.59;;;30.35;19.67
66762;BME280;53672;48.176;16.338;2022-07-18T15:23:02;99744.84;;;30.22;19.64
66762;BME280;53672;48.176;16.338;2022-07-18T15:28:04;99738.09;;;30.27;19.94
66762;BME280;53672;48.176;16.338;2022-07-18T15:33:04;99729.31;;;30.10;19.97
66762;BME280;53672;48.176;16.338;2022-07-18T15:38:04;99726.56;;;30.03;19.40
66762;BME280;53672;48.176;16.338;2022-07-18T15:43:06;99734.47;;;29.98;20.81
66762;BME280;53672;48.176;16.338;2022-07-18T15:48:07;99732.91;;;29.90;19.36
66762;BME280;53672;48.176;16.338;2022-07-18T15:53:07;99730.91;;;29.90;20.24
66762;BME280;53672;48.176;16.338;2022-07-18T15:58:09;99718.53;;;29.74;20.13
66762;BME280;53672;48.176;16.338;2022-07-18T16:03:10;99716.53;;;29.60;20.01
66762;BME280;53672;48.176;16.338;2022-07-18T16:08:10;99710.16;;;29.56;20.20
66762;BME280;53672;48.176;16.338;2022-07-18T16:13:12;99710.50;;;29.37;21.66
66762;BME280;53672;48.176;16.338;2022-07-18T16:18:12;99706.44;;;29.20;21.75
66762;BME280;53672;48.176;16.338;2022-07-18T16:23:14;99700.47;;;29.18;22.42
66762;BME280;53672;48.176;16.338;2022-07-18T16:28:16;99700.91;;;29.20;21.11
66762;BME280;53672;48.176;16.338;2022-07-18T16:33:17;99697.72;;;29.14;22.46
66762;BME280;53672;48.176;16.338;2022-07-18T16:38:17;99702.44;;;29.10;22.35
66762;BME280;53672;48.176;16.338;2022-07-18T16:43:20;99696.84;;;28.96;22.95
66762;BME280;53672;48.176;16.338;2022-07-18T16:48:20;99704.00;;;28.97;22.66
66762;BME280;53672;48.176;16.338;2022-07-18T16:53:21;99698.38;;;28.83;23.72
66762;BME280;53672;48.176;16.338;2022-07-18T16:58:24;99701.50;;;28.78;23.76
66762;BME280;53672;48.176;16.338;2022-07-18T17:03:25;99694.22;;;28.59;24.24
66762;BME280;53672;48.176;16.338;2022-07-18T17:08:26;99688.66;;;28.56;23.38
66762;BME280;53672;48.176;16.338;2022-07-18T17:13:28;99695.59;;;28.25;25.06
66762;BME280;53672;48.176;16.338;2022-07-18T17:18:29;99691.88;;;28.07;25.44
66762;BME280;53672;48.176;16.338;2022-07-18T17:23:30;99692.97;;;28.02;24.89
66762;BME280;53672;48.176;16.338;2022-07-18T17:28:33;99690.53;;;27.94;24.46
66762;BME280;53672;48.176;16.338;2022-07-18T17:33:34;99688.06;;;27.85;24.33
66762;BME280;53672;48.176;16.338;2022-07-18T17:38:35;99693.16;;;27.76;23.85
66762;BME280;53672;48.176;16.338;2022-07-18T17:43:38;99697.34;;;27.59;25.19
66762;BME280;53672;48.176;16.338;2022-07-18T17:48:39;99702.38;;;27.50;24.47
66762;BME280;53672;48.176;16.338;2022-07-18T17:53:40;99694.34;;;27.42;25.34
66762;BME280;53672;48.176;16.338;2022-07-18T17:58:42;99700.13;;;27.30;25.54
66762;BME280;53672;48.176;16.338;2022-07-18T18:03:43;99701.16;;;27.14;27.02
66762;BME280;53672;48.176;16.338;2022-07-18T18:08:44;99705.66;;;26.96;27.82
66762;BME280;53672;48.176;16.338;2022-07-18T18:13:45;99699.25;;;26.92;27.33
66762;BME280;53672;48.176;16.338;2022-07-18T18:18:46;99697.88;;;26.79;27.76
66762;BME280;53672;48.176;16.338;2022-07-18T18:23:46;99693.75;;;26.66;28.34
66762;BME280;53672;48.176;16.338;2022-07-18T18:28:48;99703.50;;;26.56;28.46
66762;BME280;53672;48.176;16.338;2022-07-18T18:33:49;99709.63;;;26.43;28.65
66762;BME280;53672;48.176;16.338;2022-07-18T18:38:49;99716.03;;;26.24;30.63
66762;BME280;53672;48.176;16.338;2022-07-18T18:43:51;99717.34;;;26.11;31.27
66762;BME280;53672;48.176;16.338;2022-07-18T18:48:52;99722.16;;;25.91;32.48
66762;BME280;53672;48.176;16.338;2022-07-18T18:53:52;99722.69;;;25.78;33.32
66762;BME280;53672;48.176;16.338;2022-07-18T18:58:54;99731.31;;;25.53;34.06
66762;BME280;53672;48.176;16.338;2022-07-18T19:03:55;99735.22;;;25.33;35.13
66762;BME280;53672;48.176;16.338;2022-07-18T19:08:55;99740.22;;;25.08;36.79
66762;BME280;53672;48.176;16.338;2022-07-18T19:13:57;99738.75;;;24.95;36.37
66762;BME280;53672;48.176;16.338;2022-07-18T19:18:57;99738.25;;;24.74;37.50
66762;BME280;53672;48.176;16.338;2022-07-18T19:23:58;99751.00;;;24.63;37.52
66762;BME280;53672;48.176;16.338;2022-07-18T19:29:01;99743.09;;;24.46;37.62
66762;BME280;53672;48.176;16.338;2022-07-18T19:34:03;99743.03;;;24.27;38.50
66762;BME280;53672;48.176;16.338;2022-07-18T19:44:05;99737.06;;;23.93;39.23
66762;BME280;53672;48.176;16.338;2022-07-18T19:49:06;99746.47;;;23.77;40.83
66762;BME280;53672;48.176;16.338;2022-07-18T19:54:06;99755.81;;;23.60;41.88
66762;BME280;53672;48.176;16.338;2022-07-18T19:59:08;99764.03;;;23.44;42.02
66762;BME280;53672;48.176;16.338;2022-07-18T20:04:09;99750.66;;;23.31;42.36
66762;BME280;53672;48.176;16.338;2022-07-18T20:09:09;99752.66;;;23.18;43.03
66762;BME280;53672;48.176;16.338;2022-07-18T20:14:11;99747.16;;;23.06;43.56
66762;BME280;53672;48.176;16.338;2022-07-18T20:19:11;99754.66;;;22.93;43.62
66762;BME280;53672;48.176;16.338;2022-07-18T20:24:12;99749.63;;;22.83;43.66
66762;BME280;53672;48.176;16.338;2022-07-18T20:29:14;99755.59;;;22.73;44.45
66762;BME280;53672;48.176;16.338;2022-07-18T20:34:14;99752.81;;;22.61;44.83
66762;BME280;53672;48.176;16.338;2022-07-18T20:39:15;99749.06;;;22.41;45.58
66762;BME280;53672;48.176;16.338;2022-07-18T20:44:17;99748.72;;;22.31;45.68
66762;BME280;53672;48.176;16.338;2022-07-18T20:49:17;99749.53;;;22.19;46.06
66762;BME280;53672;48.176;16.338;2022-07-18T20:54:18;99759.44;;;21.99;46.58
66762;BME280;53672;48.176;16.338;2022-07-18T20:59:20;99756.56;;;21.63;47.87
66762;BME280;53672;48.176;16.338;2022-07-18T21:04:20;99759.03;;;21.44;48.63
66762;BME280;53672;48.176;16.338;2022-07-18T21:09:21;99756.19;;;21.19;49.54
66762;BME280;53672;48.176;16.338;2022-07-18T21:14:23;99750.31;;;21.00;50.31
66762;BME280;53672;48.176;16.338;2022-07-18T21:19:23;99749.97;;;20.81;50.85
66762;BME280;53672;48.176;16.338;2022-07-18T21:24:24;99751.59;;;20.82;50.34
66762;BME280;53672;48.176;16.338;2022-07-18T21:29:25;99749.88;;;20.69;50.32
66762;BME280;53672;48.176;16.338;2022-07-18T21:34:26;99752.69;;;20.60;50.84
66762;BME280;53672;48.176;16.338;2022-07-18T21:39:26;99762.56;;;20.53;51.02
66762;BME280;53672;48.176;16.338;2022-07-18T21:44:28;99760.16;;;20.51;51.63
66762;BME280;53672;48.176;16.338;2022-07-18T21:49:29;99762.63;;;20.36;52.42
66762;BME280;53672;48.176;16.338;2022-07-18T21:54:29;99763.16;;;20.29;52.85
66762;BME280;53672;48.176;16.338;2022-07-18T21:59:31;99755.59;;;20.17;53.35
66762;BME280;53672;48.176;16.338;2022-07-18T22:04:32;99750.97;;;20.09;52.91
66762;BME280;53672;48.176;16.338;2022-07-18T22:09:32;99760.00;;;20.10;52.72
66762;BME280;53672;48.176;16.338;2022-07-18T22:14:34;99748.16;;;19.89;53.11
66762;BME280;53672;48.176;16.338;2022-07-18T22:19:35;99745.41;;;19.80;53.46
66762;BME280;53672;48.176;16.338;2022-07-18T22:24:35;99745.75;;;19.70;53.40
66762;BME280;53672;48.176;16.338;2022-07-18T22:29:37;99743.72;;;19.58;54.00
66762;BME280;53672;48.176;16.338;2022-07-18T22:34:38;99740.03;;;19.54;54.35
66762;BME280;53672;48.176;16.338;2022-07-18T22:39:38;99742.56;;;19.59;53.59
66762;BME280;53672;48.176;16.338;2022-07-18T22:44:40;99744.50;;;19.59;53.35
66762;BME280;53672;48.176;16.338;2022-07-18T22:49:41;99742.41;;;19.64;53.53
66762;BME280;53672;48.176;16.338;2022-07-18T22:54:41;99739.03;;;19.67;52.62
66762;BME280;53672;48.176;16.338;2022-07-18T22:59:43;99740.63;;;19.68;52.80
66762;BME280;53672;48.176;16.338;2022-07-18T23:04:43;99739.84;;;19.68;52.66
66762;BME280;53672;48.176;16.338;2022-07-18T23:09:44;99732.13;;;19.61;53.00
66762;BME280;53672;48.176;16.338;2022-07-18T23:14:46;99735.69;;;19.45;53.14
66762;BME280;53672;48.176;16.338;2022-07-18T23:19:46;99735.50;;;19.33;53.98
66762;BME280;53672;48.176;16.338;2022-07-18T23:24:47;99736.81;;;19.09;54.45
66762;BME280;53672;48.176;16.338;2022-07-18T23:29:48;99730.38;;;18.97;54.76
66762;BME280;53672;48.176;16.338;2022-07-18T23:34:49;99728.13;;;18.90;55.06
66762;BME280;53672;48.176;16.338;2022-07-18T23:39:50;99733.28;;;18.83;55.15
66762;BME280;53672;48.176;16.338;2022-07-18T23:44:52;99728.75;;;18.79;55.54
66762;BME280;53672;48.176;16.338;2022-07-18T23:49:53;99727.47;;;18.76;55.64
66762;BME280;53672;48.176;16.338;2022-07-18T23:54:53;99726.19;;;18.82;55.64
66762;BME280;53672;48.176;16.338;2022-07-18T23:59:55;99725.72;;;18.80;55.40
